Time;durP1;ratioP1;P1;durP2;ratioP2;P2;SDS_P1;SDS_P2;PMS_P1;PMS_P2;Temp;Humidity;BMP_temperature;BMP_pressure;BME280_temperature;BME280_humidity;BME280_pressure;Samples;Min_cycle;Max_cycle;Signal;HPM_P1;HPM_P2
2024/01/13 00:02:07;;;;;;;0.10;0.10;;;4.90;99.90;;;;;;5024920;28;20056;-69
2024/01/13 00:04:33;;;;;;;0.10;0.10;;;4.90;99.90;;;;;;5025923;28;20056;-69
2024/01/13 00:06:58;;;;;;;0.10;0.10;;;4.90;99.90;;;;;;5021734;28;20483;-69
2024/01/13 00:09:24;;;;;;;0.10;0.10;;;4.80;99.90;;;;;;5021055;28;20480;-69
2024/01/13 00:11:49;;;;;;;0.10;0.10;;;4.90;99.90;;;;;;5013154;28;20064;-69
2024/01/13 00:14:15;;;;;;;0.10;0.10;;;4.90;99.90;;;;;;5016708;28;20264;-69
2024/01/13 00:16:41;;;;;;;0.10;0.10;;;4.80;99.90;;;;;;5023325;28;20047;-69
2024/01/13 00:19:06;;;;;;;0.10;0.10;;;4.90;99.90;;;;;;5020937;28;20099;-69
2024/01/13 00:21:32;;;;;;;0.10;0.10;;;4.90;99.90;;;;;;5027063;28;20068;-69
2024/01/13 00:23:58;;;;;;;0.10;0.10;;;4.90;99.90;;;;;;5018033;28;20060;-69
2024/01/13 00:26:23;;;;;;;0.10;0.10;;;4.90;99.90;;;;;;5028494;28;20034;-69
2024/01/13 00:28:49;;;;;;;0.10;0.10;;;4.90;99.90;;;;;;5026889;28;20060;-69
2024/01/13 00:31:15;;;;;;;0.10;0.10;;;4.80;99.90;;;;;;5037218;28;20045;-70
2024/01/13 00:33:43;;;;;;;0.10;0.10;;;4.90;99.90;;;;;;5018924;28;20469;-70
2024/01/13 00:36:11;;;;;;;0.10;0.10;;;4.90;99.90;;;;;;5026313;28;20042;-70
2024/01/13 00:38:40;;;;;;;0.10;0.10;;;4.90;99.90;;;;;;5023969;28;20054;-70
2024/01/13 00:41:06;;;;;;;0.10;0.10;;;4.80;99.90;;;;;;5025968;28;20739;-71
2024/01/13 00:43:32;;;;;;;1.10;1.00;;;4.90;99.90;;;;;;5028954;28;20076;-70
2024/01/13 00:45:58;;;;;;;0.10;0.10;;;4.90;99.90;;;;;;5013674;28;20077;-71
2024/01/13 00:48:23;;;;;;;0.10;0.10;;;4.90;99.90;;;;;;5025302;28;20076;-71
2024/01/13 00:50:49;;;;;;;0.10;0.10;;;4.90;99.90;;;;;;5022355;28;20053;-71
2024/01/13 00:53:14;;;;;;;0.10;0.10;;;4.90;99.90;;;;;;5026198;28;20070;-71
2024/01/13 00:55:40;;;;;;;0.10;0.10;;;4.90;99.90;;;;;;5027017;28;20042;-71
2024/01/13 00:58:05;;;;;;;0.10;0.10;;;4.90;99.90;;;;;;5022629;28;20062;-70
2024/01/13 01:00:31;;;;;;;0.13;0.13;;;4.90;99.90;;;;;;5025105;28;20079;-71
2024/01/13 01:02:56;;;;;;;0.10;0.10;;;4.90;99.90;;;;;;5026495;28;20053;-71
2024/01/13 01:05:22;;;;;;;0.10;0.10;;;4.90;99.90;;;;;;5025799;28;20041;-70
2024/01/13 01:07:47;;;;;;;0.10;0.10;;;4.90;99.90;;;;;;5024172;28;20042;-71
2024/01/13 01:10:13;;;;;;;0.10;0.10;;;4.90;99.90;;;;;;5025308;28;20050;-70
2024/01/13 01:12:39;;;;;;;0.10;0.10;;;4.90;99.90;;;;;;5026861;28;20042;-71
2024/01/13 01:15:05;;;;;;;0.10;0.10;;;4.80;99.90;;;;;;5020436;28;20046;-71
2024/01/13 01:17:30;;;;;;;0.10;0.10;;;4.90;99.90;;;;;;5018372;28;20096;-71
2024/01/13 01:19:56;;;;;;;0.10;0.10;;;4.90;99.90;;;;;;5027197;28;20053;-71
2024/01/13 01:22:22;;;;;;;0.10;0.10;;;4.80;99.90;;;;;;5021797;28;20538;-70
2024/01/13 01:24:48;;;;;;;0.10;0.10;;;4.90;99.90;;;;;;5026097;28;20051;-71
2024/01/13 01:27:13;;;;;;;0.10;0.10;;;4.90;99.90;;;;;;5027893;28;20034;-71
2024/01/13 01:29:39;;;;;;;0.10;0.10;;;4.90;99.90;;;;;;5021850;28;20489;-71
2024/01/13 01:32:05;;;;;;;2.65;1.08;;;4.90;99.90;;;;;;5027149;28;20103;-71
2024/01/13 01:34:30;;;;;;;0.10;0.10;;;4.90;99.90;;;;;;5026749;28;20211;-70
2024/01/13 01:36:56;;;;;;;0.10;0.10;;;4.90;99.90;;;;;;5016973;28;20062;-71
2024/01/13 01:39:21;;;;;;;0.10;0.10;;;4.80;99.90;;;;;;5034463;28;20041;-70
2024/01/13 01:41:47;;;;;;;0.10;0.10;;;4.80;99.90;;;;;;5021464;28;20069;-70
2024/01/13 01:44:12;;;;;;;0.10;0.10;;;4.80;99.90;;;;;;5027926;28;20075;-70
2024/01/13 01:46:39;;;;;;;0.10;0.10;;;4.80;99.90;;;;;;5031166;28;20366;-71
2024/01/13 01:49:05;;;;;;;0.20;0.20;;;4.80;99.90;;;;;;5031483;28;20484;-71
2024/01/13 01:51:32;;;;;;;0.08;0.08;;;4.70;99.90;;;;;;5025867;28;20042;-71
2024/01/13 01:53:59;;;;;;;0.10;0.10;;;4.70;99.90;;;;;;5026564;28;20091;-70
2024/01/13 01:56:28;;;;;;;0.10;0.10;;;4.60;99.90;;;;;;5030061;28;20045;-71
2024/01/13 01:58:56;;;;;;;0.10;0.10;;;4.60;99.90;;;;;;5030531;28;20075;-70
2024/01/13 02:01:26;;;;;;;0.10;0.10;;;4.60;99.90;;;;;;5021884;28;20046;-71
2024/01/13 02:03:53;;;;;;;0.13;0.13;;;4.70;99.90;;;;;;5028810;28;20050;-71
2024/01/13 02:06:19;;;;;;;0.10;0.10;;;4.60;99.90;;;;;;5030718;28;20041;-71
2024/01/13 02:08:46;;;;;;;0.08;0.08;;;4.60;99.90;;;;;;5028033;28;20481;-71
2024/01/13 02:11:12;;;;;;;0.10;0.10;;;4.60;99.90;;;;;;5023981;28;20064;-71
2024/01/13 02:13:41;;;;;;;0.10;0.10;;;4.60;99.90;;;;;;5044877;28;20088;-70
2024/01/13 02:16:08;;;;;;;0.17;0.17;;;4.60;99.90;;;;;;5032951;28;20432;-71
2024/01/13 02:18:34;;;;;;;0.10;0.10;;;4.60;99.90;;;;;;5025424;28;20045;-71
2024/01/13 02:20:59;;;;;;;0.15;0.15;;;4.60;99.90;;;;;;5024872;28;20099;-70
2024/01/13 02:23:25;;;;;;;0.10;0.10;;;4.70;99.90;;;;;;5030613;28;20069;-71
2024/01/13 02:25:51;;;;;;;0.10;0.10;;;4.60;99.90;;;;;;5030335;28;20370;-71
2024/01/13 02:28:17;;;;;;;0.10;0.10;;;4.60;99.90;;;;;;5023904;28;20042;-71
2024/01/13 02:30:42;;;;;;;0.10;0.10;;;4.60;99.90;;;;;;5029140;28;20417;-70
2024/01/13 02:33:08;;;;;;;0.03;0.03;;;4.70;99.90;;;;;;5029318;28;20049;-71
2024/01/13 02:35:33;;;;;;;0.10;0.10;;;4.70;99.90;;;;;;5030042;28;20111;-71
2024/01/13 02:37:59;;;;;;;0.10;0.10;;;4.70;99.90;;;;;;5024674;28;20107;-70
2024/01/13 02:40:24;;;;;;;0.10;0.10;;;4.70;99.90;;;;;;5026849;28;20129;-70
2024/01/13 02:42:50;;;;;;;0.05;0.05;;;4.70;99.90;;;;;;5023524;28;20440;-70
2024/01/13 02:45:16;;;;;;;0.10;0.10;;;4.70;99.90;;;;;;5027105;28;20046;-70
2024/01/13 02:47:48;;;;;;;0.10;0.10;;;4.70;99.90;;;;;;5027829;28;20042;-70
2024/01/13 02:50:14;;;;;;;0.10;0.10;;;4.70;99.90;;;;;;5021889;28;20081;-70
2024/01/13 02:52:42;;;;;;;0.10;0.10;;;4.70;99.90;;;;;;5023912;28;20069;-71
2024/01/13 02:55:08;;;;;;;0.15;0.15;;;4.60;99.90;;;;;;5023376;28;20056;-71
2024/01/13 02:57:33;;;;;;;0.10;0.10;;;4.60;99.90;;;;;;5019433;28;20141;-70
2024/01/13 02:59:59;;;;;;;0.10;0.10;;;4.60;99.90;;;;;;5036665;28;20103;-70
2024/01/13 03:02:25;;;;;;;0.10;0.10;;;4.60;99.90;;;;;;5030022;28;20087;-71
2024/01/13 03:04:51;;;;;;;0.10;0.10;;;4.70;99.90;;;;;;5024658;28;20065;-71
2024/01/13 03:07:16;;;;;;;0.10;0.10;;;4.80;99.90;;;;;;5029090;28;20048;-71
2024/01/13 03:09:42;;;;;;;0.10;0.10;;;4.70;99.90;;;;;;5027268;28;20464;-71
2024/01/13 03:12:07;;;;;;;0.10;0.10;;;4.70;99.90;;;;;;5030889;28;20041;-71
2024/01/13 03:14:33;;;;;;;0.80;0.80;;;4.70;99.90;;;;;;5043159;28;20077;-71
2024/01/13 03:16:58;;;;;;;0.10;0.10;;;4.70;99.90;;;;;;5028347;28;20041;-71
2024/01/13 03:19:24;;;;;;;0.10;0.10;;;4.70;99.90;;;;;;5021732;28;20116;-70
2024/01/13 03:21:50;;;;;;;0.10;0.10;;;4.70;99.90;;;;;;5023988;28;20069;-71
2024/01/13 03:24:18;;;;;;;0.15;0.15;;;4.70;99.90;;;;;;5028994;28;20045;-70
2024/01/13 03:26:44;;;;;;;0.10;0.10;;;4.70;99.90;;;;;;5028594;28;20041;-71
2024/01/13 03:29:09;;;;;;;0.10;0.10;;;4.70;99.90;;;;;;5018256;28;20476;-71
2024/01/13 03:31:35;;;;;;;0.10;0.10;;;4.80;99.90;;;;;;5014599;28;20453;-71
2024/01/13 03:34:00;;;;;;;0.10;0.10;;;4.80;99.90;;;;;;5025866;28;20037;-71
2024/01/13 03:36:26;;;;;;;0.00;0.00;;;4.80;99.90;;;;;;5028533;28;20053;-70
2024/01/13 03:38:51;;;;;;;0.30;0.30;;;4.80;99.90;;;;;;5034137;28;20056;-70
2024/01/13 03:41:19;;;;;;;0.10;0.10;;;4.80;99.90;;;;;;5021340;28;20391;-71
2024/01/13 03:43:45;;;;;;;0.00;0.00;;;4.80;99.90;;;;;;5020058;28;20428;-71
2024/01/13 03:46:11;;;;;;;0.10;0.10;;;4.80;99.90;;;;;;5020527;28;20041;-70
2024/01/13 03:48:37;;;;;;;0.10;0.10;;;4.80;99.90;;;;;;5027476;28;20115;-71
2024/01/13 03:51:02;;;;;;;0.10;0.10;;;4.80;99.90;;;;;;5028335;28;20133;-71
2024/01/13 03:53:28;;;;;;;1.55;1.45;;;4.80;99.90;;;;;;5019972;28;20046;-70
2024/01/13 03:55:54;;;;;;;0.10;0.10;;;4.80;99.90;;;;;;5043476;28;20499;-70
2024/01/13 03:58:20;;;;;;;0.10;0.10;;;4.80;99.90;;;;;;5021909;28;20390;-70
2024/01/13 04:00:46;;;;;;;0.10;0.10;;;4.80;99.90;;;;;;5027673;28;20645;-70
2024/01/13 04:03:11;;;;;;;0.10;0.10;;;4.80;99.90;;;;;;5027173;28;20056;-70
2024/01/13 04:05:37;;;;;;;0.10;0.10;;;4.80;99.90;;;;;;5024724;28;20474;-70
2024/01/13 04:08:03;;;;;;;0.10;0.10;;;4.80;99.90;;;;;;5028863;28;20041;-70
2024/01/13 04:10:29;;;;;;;0.10;0.10;;;4.80;99.90;;;;;;5025116;28;20050;-71
2024/01/13 04:12:56;;;;;;;0.10;0.10;;;4.70;99.90;;;;;;5023093;28;20045;-71
2024/01/13 04:15:22;;;;;;;0.10;0.10;;;4.70;99.90;;;;;;5029144;28;20048;-71
2024/01/13 04:17:48;;;;;;;0.10;0.10;;;4.70;99.90;;;;;;5027571;28;20049;-71
2024/01/13 04:20:13;;;;;;;0.10;0.10;;;4.60;99.90;;;;;;5022070;28;20049;-70
2024/01/13 04:22:39;;;;;;;0.10;0.10;;;4.60;99.90;;;;;;5027244;28;20132;-70
2024/01/13 04:25:05;;;;;;;0.10;0.10;;;4.50;99.90;;;;;;5026212;28;20129;-70
2024/01/13 04:27:31;;;;;;;0.10;0.10;;;4.60;99.90;;;;;;5021045;28;21163;-70
2024/01/13 04:29:56;;;;;;;0.10;0.10;;;4.60;99.90;;;;;;5027620;28;20136;-70
2024/01/13 04:32:22;;;;;;;0.10;0.10;;;4.50;99.90;;;;;;5023906;28;20049;-70
2024/01/13 04:34:47;;;;;;;0.10;0.10;;;4.60;99.90;;;;;;5022091;28;20515;-70
2024/01/13 04:37:13;;;;;;;0.10;0.10;;;4.50;99.90;;;;;;5025225;28;20087;-70
2024/01/13 04:39:39;;;;;;;0.10;0.10;;;4.60;99.90;;;;;;5029619;28;20463;-71
2024/01/13 04:42:04;;;;;;;0.10;0.10;;;4.60;99.90;;;;;;5025872;28;20042;-70
2024/01/13 04:44:30;;;;;;;0.10;0.10;;;4.60;99.90;;;;;;5016901;28;20461;-71
2024/01/13 04:46:55;;;;;;;0.10;0.10;;;4.70;99.90;;;;;;5024105;28;20057;-70
2024/01/13 04:49:21;;;;;;;0.10;0.10;;;4.60;99.90;;;;;;5035802;28;20045;-70
2024/01/13 04:51:46;;;;;;;0.30;0.30;;;4.60;99.90;;;;;;5021997;28;20390;-71
2024/01/13 04:54:12;;;;;;;0.10;0.10;;;4.60;99.90;;;;;;5026989;28;20045;-71
2024/01/13 04:56:38;;;;;;;0.10;0.10;;;4.60;99.90;;;;;;5019262;28;20064;-70
2024/01/13 04:59:03;;;;;;;0.17;0.17;;;4.60;99.90;;;;;;5022937;28;20099;-70
2024/01/13 05:01:29;;;;;;;0.10;0.10;;;4.60;99.90;;;;;;5025065;28;20050;-70
2024/01/13 05:03:54;;;;;;;0.10;0.10;;;4.70;99.90;;;;;;5028730;28;20543;-70
2024/01/13 05:06:20;;;;;;;0.10;0.10;;;4.70;99.90;;;;;;5017086;28;20467;-70
2024/01/13 05:08:46;;;;;;;0.10;0.10;;;4.70;99.90;;;;;;5016931;28;20057;-70
2024/01/13 05:11:11;;;;;;;0.10;0.10;;;4.70;99.90;;;;;;5024873;28;20507;-70
2024/01/13 05:13:37;;;;;;;0.10;0.10;;;4.70;99.90;;;;;;5027647;28;20029;-70
2024/01/13 05:16:03;;;;;;;0.10;0.10;;;4.70;99.90;;;;;;5021475;28;20110;-70
2024/01/13 05:18:28;;;;;;;0.32;0.32;;;4.70;99.90;;;;;;5023887;28;20838;-70
2024/01/13 05:20:54;;;;;;;0.10;0.10;;;4.70;99.90;;;;;;5020927;28;20045;-71
2024/01/13 05:23:20;;;;;;;0.10;0.10;;;4.70;99.90;;;;;;5030812;28;20637;-70
2024/01/13 05:25:45;;;;;;;0.10;0.10;;;4.70;99.90;;;;;;5028764;28;20041;-70
2024/01/13 05:28:11;;;;;;;0.10;0.10;;;4.70;99.90;;;;;;5025033;28;20068;-70
2024/01/13 05:30:36;;;;;;;0.10;0.10;;;4.70;99.90;;;;;;5027546;28;20472;-71
2024/01/13 05:33:02;;;;;;;0.70;0.70;;;4.70;99.90;;;;;;5024293;28;20041;-70
2024/01/13 05:35:28;;;;;;;0.10;0.10;;;4.70;99.90;;;;;;5026531;28;20037;-70
2024/01/13 05:37:53;;;;;;;0.10;0.10;;;4.60;99.90;;;;;;5031398;28;20045;-70
2024/01/13 05:40:22;;;;;;;0.10;0.10;;;4.60;99.90;;;;;;5024469;28;20512;-70
2024/01/13 05:42:47;;;;;;;0.10;0.10;;;4.60;99.90;;;;;;5025514;28;20088;-70
2024/01/13 05:45:13;;;;;;;0.10;0.10;;;4.60;99.90;;;;;;5023901;28;20452;-70
2024/01/13 05:47:39;;;;;;;0.10;0.10;;;4.70;99.90;;;;;;5031185;28;20045;-70
2024/01/13 05:50:05;;;;;;;0.10;0.10;;;4.70;99.90;;;;;;5030008;28;20061;-70
2024/01/13 05:52:30;;;;;;;0.10;0.10;;;4.70;99.90;;;;;;5022103;28;20120;-71
2024/01/13 05:54:56;;;;;;;0.10;0.10;;;4.60;99.90;;;;;;5028625;28;20141;-71
2024/01/13 05:57:22;;;;;;;0.10;0.10;;;4.70;99.90;;;;;;5029990;28;20044;-70
2024/01/13 05:59:48;;;;;;;0.10;0.10;;;4.60;99.90;;;;;;5030915;28;20045;-70
2024/01/13 06:02:14;;;;;;;0.10;0.10;;;4.60;99.90;;;;;;5028378;28;20095;-70
2024/01/13 06:04:40;;;;;;;0.10;0.10;;;4.60;99.90;;;;;;5028520;28;20049;-70
2024/01/13 06:07:05;;;;;;;0.10;0.10;;;4.60;99.90;;;;;;5022371;28;20106;-70
2024/01/13 06:09:32;;;;;;;0.10;0.10;;;4.60;99.90;;;;;;5029086;28;20060;-70
2024/01/13 06:11:57;;;;;;;0.10;0.10;;;4.60;99.90;;;;;;5029130;28;20401;-70
2024/01/13 06:14:23;;;;;;;0.10;0.10;;;4.60;99.90;;;;;;5028946;28;20045;-71
2024/01/13 06:16:49;;;;;;;0.10;0.10;;;4.50;99.90;;;;;;5028868;28;20120;-70
2024/01/13 06:19:14;;;;;;;0.10;0.10;;;4.50;99.90;;;;;;5023359;28;20121;-70
2024/01/13 06:21:43;;;;;;;0.10;0.10;;;4.60;99.90;;;;;;5023390;28;20582;-70
2024/01/13 06:24:10;;;;;;;0.10;0.10;;;4.60;99.90;;;;;;5028516;28;20038;-70
2024/01/13 06:26:40;;;;;;;0.10;0.10;;;4.60;99.90;;;;;;5028509;28;20046;-70
2024/01/13 06:29:07;;;;;;;0.20;0.20;;;4.60;99.90;;;;;;5019596;28;20045;-70
2024/01/13 06:31:32;;;;;;;0.10;0.10;;;4.60;99.90;;;;;;5030348;28;20180;-70
2024/01/13 06:33:58;;;;;;;0.10;0.10;;;4.60;99.90;;;;;;5030441;28;20528;-70
2024/01/13 06:36:24;;;;;;;0.10;0.10;;;4.60;99.90;;;;;;5030717;28;20037;-70
2024/01/13 06:38:50;;;;;;;0.10;0.10;;;4.60;99.90;;;;;;5022530;28;20077;-70
2024/01/13 06:41:15;;;;;;;0.10;0.10;;;4.60;99.90;;;;;;5029121;28;20507;-70
2024/01/13 06:43:41;;;;;;;0.10;0.10;;;4.60;99.90;;;;;;5029701;28;20045;-70
2024/01/13 06:46:07;;;;;;;3.75;0.85;;;4.70;99.90;;;;;;5025178;28;20034;-70
2024/01/13 06:48:33;;;;;;;0.10;0.10;;;4.70;99.90;;;;;;5021519;28;20042;-70
2024/01/13 06:50:58;;;;;;;0.10;0.10;;;4.70;99.90;;;;;;5028978;28;20064;-70
2024/01/13 06:53:24;;;;;;;0.10;0.10;;;4.70;99.90;;;;;;5018009;28;20088;-70
2024/01/13 06:55:50;;;;;;;0.10;0.10;;;4.70;99.90;;;;;;5021396;28;20405;-70
2024/01/13 06:58:16;;;;;;;0.10;0.10;;;4.80;99.90;;;;;;5030169;28;20051;-70
2024/01/13 07:00:41;;;;;;;0.05;0.05;;;4.80;99.90;;;;;;5028813;28;20041;-70
2024/01/13 07:03:07;;;;;;;12.52;0.98;;;4.70;99.90;;;;;;5035238;28;20042;-70
2024/01/13 07:05:32;;;;;;;0.20;0.20;;;4.80;99.90;;;;;;5027979;28;20053;-70
2024/01/13 07:08:00;;;;;;;0.10;0.10;;;4.80;99.90;;;;;;5028088;28;20512;-70
2024/01/13 07:10:29;;;;;;;6.32;1.25;;;4.80;99.90;;;;;;5023270;28;20057;-70
2024/01/13 07:12:55;;;;;;;0.68;0.68;;;4.80;99.90;;;;;;5024836;28;20053;-70
2024/01/13 07:15:21;;;;;;;0.20;0.20;;;4.80;99.90;;;;;;5027542;28;20045;-70
2024/01/13 07:17:46;;;;;;;0.10;0.10;;;4.80;99.90;;;;;;5021553;28;20046;-70
2024/01/13 07:20:12;;;;;;;0.77;0.73;;;4.80;99.90;;;;;;5018949;28;20041;-70
2024/01/13 07:22:38;;;;;;;0.20;0.20;;;4.80;99.90;;;;;;5019373;28;20045;-69
2024/01/13 07:25:04;;;;;;;0.20;0.20;;;4.80;99.90;;;;;;5030007;28;20052;-69
2024/01/13 07:27:30;;;;;;;0.40;0.40;;;4.80;99.90;;;;;;5028277;28;20045;-70
2024/01/13 07:29:56;;;;;;;13.25;1.45;;;4.70;99.90;;;;;;5021529;28;20073;-70
2024/01/13 07:32:22;;;;;;;0.20;0.20;;;4.70;99.90;;;;;;5021883;28;20056;-69
2024/01/13 07:34:48;;;;;;;0.43;0.43;;;4.80;99.90;;;;;;5026921;28;20160;-69
2024/01/13 07:37:14;;;;;;;0.68;0.68;;;4.80;99.90;;;;;;5023238;28;20245;-69
2024/01/13 07:39:39;;;;;;;0.15;0.15;;;4.80;99.90;;;;;;5023041;28;20045;-70
2024/01/13 07:42:05;;;;;;;1.23;1.20;;;4.80;99.90;;;;;;5019162;28;20053;-69
2024/01/13 07:44:30;;;;;;;0.22;0.22;;;4.70;99.90;;;;;;5038523;28;21809;-70
2024/01/13 07:47:01;;;;;;;0.17;0.17;;;4.80;99.90;;;;;;5029535;28;20048;-70
2024/01/13 07:49:27;;;;;;;0.43;0.43;;;4.80;99.90;;;;;;5019537;28;20509;-70
2024/01/13 07:51:53;;;;;;;0.73;0.73;;;4.80;99.90;;;;;;5017431;28;20409;-70
2024/01/13 07:54:20;;;;;;;1.77;1.67;;;4.80;99.90;;;;;;5028738;28;20041;-70
2024/01/13 07:56:45;;;;;;;1.55;1.45;;;4.80;99.90;;;;;;5017370;28;20918;-70
2024/01/13 07:59:11;;;;;;;1.73;1.45;;;4.80;99.90;;;;;;5026421;28;20085;-70
2024/01/13 08:01:38;;;;;;;1.77;1.67;;;4.80;99.90;;;;;;5023114;28;20140;-70
2024/01/13 08:04:04;;;;;;;0.73;0.73;;;4.80;99.90;;;;;;5016110;28;20081;-69
2024/01/13 08:06:29;;;;;;;0.30;0.30;;;4.80;99.90;;;;;;5025940;28;20507;-70
2024/01/13 08:08:56;;;;;;;0.80;0.35;;;4.80;99.90;;;;;;5027343;28;20048;-69
2024/01/13 08:11:22;;;;;;;0.35;0.35;;;4.70;99.90;;;;;;5016360;28;20045;-69
2024/01/13 08:13:47;;;;;;;0.45;0.45;;;4.80;99.90;;;;;;5026689;28;20115;-70
2024/01/13 08:16:13;;;;;;;3.72;1.55;;;4.80;99.90;;;;;;5018281;28;20035;-69
2024/01/13 08:18:38;;;;;;;4.22;1.13;;;4.80;99.90;;;;;;5034127;28;20060;-70
2024/01/13 08:21:04;;;;;;;1.33;1.23;;;4.80;99.90;;;;;;5027465;28;20048;-69
2024/01/13 08:23:30;;;;;;;0.20;0.20;;;4.80;99.90;;;;;;5025082;28;20068;-69
2024/01/13 08:25:56;;;;;;;7.82;4.43;;;4.80;99.90;;;;;;5023663;28;20159;-69
2024/01/13 08:28:21;;;;;;;0.65;0.65;;;4.80;99.90;;;;;;5024546;28;20489;-70
2024/01/13 08:30:47;;;;;;;0.55;0.55;;;4.80;99.90;;;;;;5022909;28;20060;-69
2024/01/13 08:33:13;;;;;;;0.75;0.75;;;4.80;99.90;;;;;;5022226;28;20520;-69
2024/01/13 08:35:38;;;;;;;0.50;0.50;;;4.80;99.90;;;;;;5024422;28;20049;-69
2024/01/13 08:38:04;;;;;;;2.63;1.65;;;4.80;99.90;;;;;;5028483;28;20053;-69
2024/01/13 08:40:29;;;;;;;1.23;1.17;;;4.80;99.90;;;;;;5027384;28;20057;-69
2024/01/13 08:42:56;;;;;;;0.28;0.28;;;4.80;99.90;;;;;;5022142;28;20045;-69
2024/01/13 08:45:29;;;;;;;2.65;2.25;;;4.90;99.90;;;;;;5018425;28;20111;-69
2024/01/13 08:47:58;;;;;;;0.20;0.20;;;4.90;99.90;;;;;;5023816;28;20065;-69
2024/01/13 08:50:24;;;;;;;0.82;0.82;;;4.90;99.90;;;;;;5024362;28;20061;-69
2024/01/13 08:52:55;;;;;;;0.10;0.10;;;4.80;99.90;;;;;;5043986;28;20478;-69
2024/01/13 08:55:24;;;;;;;0.57;0.57;;;4.90;99.90;;;;;;5019976;28;20084;-69
2024/01/13 08:57:50;;;;;;;0.40;0.40;;;4.90;99.90;;;;;;5024773;28;20129;-69
2024/01/13 09:00:16;;;;;;;1.10;0.95;;;4.80;99.90;;;;;;5043103;28;20050;-69
2024/01/13 09:02:42;;;;;;;0.35;0.35;;;4.90;99.90;;;;;;5017354;28;20124;-69
2024/01/13 09:05:09;;;;;;;1.02;0.98;;;4.90;99.90;;;;;;5021673;28;20057;-69
2024/01/13 09:07:35;;;;;;;0.68;0.68;;;4.90;99.90;;;;;;5025079;28;20388;-69
2024/01/13 09:10:02;;;;;;;2.97;2.70;;;4.90;99.90;;;;;;5021855;28;20034;-70
2024/01/13 09:12:28;;;;;;;1.10;1.10;;;4.90;99.90;;;;;;5026367;28;20056;-69
2024/01/13 09:14:53;;;;;;;0.88;0.88;;;4.90;99.90;;;;;;5027968;28;20468;-69
2024/01/13 09:17:19;;;;;;;2.00;1.65;;;5.00;99.90;;;;;;5042604;28;20042;-69
2024/01/13 09:19:45;;;;;;;0.80;0.80;;;5.00;99.90;;;;;;5016341;28;20042;-69
2024/01/13 09:22:10;;;;;;;1.05;1.00;;;5.00;99.90;;;;;;5025004;28;20041;-69
2024/01/13 09:24:36;;;;;;;0.82;0.82;;;5.00;99.90;;;;;;5026529;28;20056;-69
2024/01/13 09:27:02;;;;;;;1.05;0.95;;;5.00;99.90;;;;;;5022946;28;20125;-69
2024/01/13 09:29:27;;;;;;;0.98;0.93;;;5.00;99.90;;;;;;5018161;28;20086;-68
2024/01/13 09:31:53;;;;;;;0.70;0.70;;;5.10;99.90;;;;;;5028685;28;20099;-69
2024/01/13 09:34:19;;;;;;;0.60;0.60;;;5.10;99.90;;;;;;5027878;28;21559;-69
2024/01/13 09:36:45;;;;;;;10.52;2.13;;;5.10;99.90;;;;;;5015898;28;20054;-69
2024/01/13 09:39:11;;;;;;;0.10;0.10;;;5.10;99.90;;;;;;5024506;28;20068;-69
2024/01/13 09:41:37;;;;;;;0.85;0.45;;;5.10;99.90;;;;;;5026279;28;20045;-69
2024/01/13 09:44:11;;;;;;;0.82;0.82;;;5.10;99.90;;;;;;5018571;28;20656;-69
2024/01/13 09:46:37;;;;;;;0.10;0.10;;;5.10;99.90;;;;;;5022124;28;20587;-69
2024/01/13 09:49:08;;;;;;;0.73;0.57;;;5.10;99.90;;;;;;5028218;28;20048;-69
2024/01/13 09:51:34;;;;;;;0.10;0.10;;;5.10;99.90;;;;;;5040548;28;20052;-68
2024/01/13 09:54:11;;;;;;;1.45;1.13;;;5.10;99.90;;;;;;5018755;28;20050;-69
2024/01/13 09:56:46;;;;;;;0.20;0.20;;;5.10;99.90;;;;;;5026497;28;20566;-69
2024/01/13 09:59:12;;;;;;;0.43;0.43;;;5.20;99.90;;;;;;5021373;28;20584;-69
2024/01/13 10:01:38;;;;;;;3.38;1.08;;;5.10;99.90;;;;;;5027452;28;20045;-69
2024/01/13 10:04:07;;;;;;;0.17;0.17;;;5.10;99.90;;;;;;5022610;28;20648;-69
2024/01/13 10:06:34;;;;;;;0.80;0.80;;;5.10;99.90;;;;;;5026294;28;20038;-69
2024/01/13 10:09:00;;;;;;;0.17;0.17;;;5.10;99.90;;;;;;5023898;28;20485;-69
2024/01/13 10:11:27;;;;;;;3.63;1.55;;;5.10;99.90;;;;;;5027795;28;20057;-69
2024/01/13 10:14:12;;;;;;;1.60;1.15;;;5.20;99.90;;;;;;5040883;28;20489;-68
2024/01/13 10:16:37;;;;;;;4.40;1.55;;;5.20;99.90;;;;;;5029195;28;20450;-68
2024/01/13 10:19:05;;;;;;;0.30;0.30;;;5.20;99.90;;;;;;5031013;28;20050;-69
2024/01/13 10:21:31;;;;;;;1.77;0.73;;;5.20;99.90;;;;;;5026169;28;20041;-69
2024/01/13 10:23:59;;;;;;;0.52;0.52;;;5.20;99.90;;;;;;5024203;28;20538;-69
2024/01/13 10:26:25;;;;;;;0.35;0.35;;;5.30;99.90;;;;;;5023785;28;20460;-68
2024/01/13 10:28:51;;;;;;;0.52;0.52;;;5.30;99.90;;;;;;5030437;28;20516;-69
2024/01/13 10:31:18;;;;;;;0.40;0.40;;;5.30;99.90;;;;;;5031604;28;20055;-69
2024/01/13 10:33:48;;;;;;;0.90;0.90;;;5.30;99.90;;;;;;5026717;28;20724;-68
2024/01/13 10:36:21;;;;;;;0.35;0.35;;;5.30;99.90;;;;;;5025756;28;20520;-69
2024/01/13 10:38:47;;;;;;;0.10;0.10;;;5.30;99.90;;;;;;5020183;28;20049;-69
2024/01/13 10:41:13;;;;;;;1.02;0.93;;;5.30;99.90;;;;;;5030425;28;20033;-69
2024/01/13 10:43:41;;;;;;;0.77;0.77;;;5.40;99.90;;;;;;5021773;28;20042;-69
2024/01/13 10:46:11;;;;;;;0.30;0.30;;;5.40;99.90;;;;;;5025586;28;20048;-69
2024/01/13 10:48:42;;;;;;;0.60;0.60;;;5.40;99.90;;;;;;5029869;28;20188;-69
2024/01/13 10:51:22;;;;;;;2.38;1.50;;;5.40;99.90;;;;;;5023315;28;20057;-69
2024/01/13 10:53:51;;;;;;;0.10;0.10;;;5.40;99.90;;;;;;5026982;28;20392;-69
2024/01/13 10:56:16;;;;;;;0.10;0.10;;;5.40;99.90;;;;;;5031359;28;20416;-70
2024/01/13 10:58:45;;;;;;;0.63;0.63;;;5.40;99.90;;;;;;5021900;28;20041;-69
2024/01/13 11:01:11;;;;;;;0.10;0.10;;;5.50;99.90;;;;;;5028033;28;20424;-70
2024/01/13 11:03:38;;;;;;;0.10;0.10;;;5.60;99.90;;;;;;5030026;28;20057;-70
2024/01/13 11:06:04;;;;;;;0.10;0.10;;;5.70;99.90;;;;;;5021055;28;21747;-70
2024/01/13 11:08:30;;;;;;;0.10;0.10;;;5.70;99.90;;;;;;5024530;28;20038;-70
2024/01/13 11:10:57;;;;;;;1.45;1.38;;;5.70;99.90;;;;;;5024161;28;20559;-69
2024/01/13 11:13:27;;;;;;;0.10;0.10;;;5.80;99.90;;;;;;5021820;28;20125;-69
2024/01/13 11:16:06;;;;;;;0.20;0.20;;;5.80;99.90;;;;;;5027233;28;20485;-70
2024/01/13 11:18:46;;;;;;;0.10;0.10;;;5.80;99.90;;;;;;5030578;28;20055;-70
2024/01/13 11:21:12;;;;;;;0.10;0.10;;;5.80;99.90;;;;;;5026890;28;20049;-68
2024/01/13 11:23:45;;;;;;;0.10;0.10;;;5.80;99.90;;;;;;5019590;28;20045;-68
2024/01/13 11:26:11;;;;;;;0.10;0.10;;;5.90;99.90;;;;;;5030258;28;20080;-68
2024/01/13 11:28:50;;;;;;;0.10;0.10;;;5.90;99.90;;;;;;5027974;28;20412;-68
2024/01/13 11:31:37;;;;;;;0.30;0.30;;;6.00;99.90;;;;;;5018529;28;20053;-68
2024/01/13 11:34:15;;;;;;;0.10;0.10;;;6.00;99.90;;;;;;5040536;28;20077;-68
2024/01/13 11:36:49;;;;;;;0.43;0.43;;;6.10;99.90;;;;;;5019818;28;20053;-69
2024/01/13 11:39:16;;;;;;;0.75;0.75;;;6.00;99.90;;;;;;5022584;28;20053;-69
2024/01/13 11:41:48;;;;;;;0.10;0.10;;;6.10;99.90;;;;;;5028459;28;20045;-68
2024/01/13 11:44:34;;;;;;;0.10;0.10;;;6.10;99.90;;;;;;5020678;28;20048;-68
2024/01/13 11:47:05;;;;;;;0.10;0.10;;;6.10;99.90;;;;;;5021961;28;20079;-69
2024/01/13 11:49:33;;;;;;;35.28;1.27;;;6.10;99.90;;;;;;5028013;28;20123;-69
2024/01/13 11:51:59;;;;;;;0.25;0.25;;;6.10;99.90;;;;;;5018488;28;20060;-69
2024/01/13 11:54:26;;;;;;;0.10;0.10;;;6.10;99.90;;;;;;5030278;28;20088;-69
2024/01/13 11:56:57;;;;;;;0.10;0.10;;;6.10;99.90;;;;;;5029076;28;20052;-69
2024/01/13 11:59:22;;;;;;;0.10;0.10;;;6.20;99.90;;;;;;5035950;28;20041;-68
2024/01/13 12:01:48;;;;;;;0.10;0.10;;;6.10;99.90;;;;;;5025881;28;20587;-68
2024/01/13 12:04:16;;;;;;;0.90;0.90;;;6.10;99.90;;;;;;5019755;28;20073;-69
2024/01/13 12:06:43;;;;;;;0.10;0.10;;;6.20;99.90;;;;;;5027591;28;20041;-69
2024/01/13 12:09:10;;;;;;;1.35;1.17;;;6.20;99.90;;;;;;5025868;28;20046;-69
2024/01/13 12:11:36;;;;;;;0.00;0.00;;;6.20;99.90;;;;;;5021580;28;20056;-69
2024/01/13 12:14:03;;;;;;;1.30;0.77;;;6.20;99.90;;;;;;5029016;28;20045;-68
2024/01/13 12:16:30;;;;;;;0.10;0.10;;;6.30;99.90;;;;;;5027203;28;20120;-69
2024/01/13 12:18:55;;;;;;;0.10;0.10;;;6.30;99.90;;;;;;5021847;28;20045;-69
2024/01/13 12:21:22;;;;;;;0.15;0.15;;;6.30;99.90;;;;;;5026809;28;20061;-69
2024/01/13 12:23:48;;;;;;;0.10;0.10;;;6.30;99.90;;;;;;5024295;28;20067;-69
2024/01/13 12:26:14;;;;;;;0.10;0.10;;;6.30;99.90;;;;;;5016810;28;20046;-69
2024/01/13 12:28:40;;;;;;;0.10;0.10;;;6.30;99.90;;;;;;5020354;28;20840;-69
2024/01/13 12:31:06;;;;;;;0.05;0.05;;;6.30;99.90;;;;;;5027144;28;20041;-69
2024/01/13 12:33:32;;;;;;;0.40;0.40;;;6.30;99.90;;;;;;5021384;28;20049;-69
2024/01/13 12:36:03;;;;;;;0.10;0.10;;;6.30;99.90;;;;;;5026582;28;20038;-70
2024/01/13 12:38:30;;;;;;;0.10;0.10;;;6.30;99.90;;;;;;5022875;28;20053;-70
2024/01/13 12:40:58;;;;;;;0.10;0.10;;;6.30;99.90;;;;;;5021760;28;20059;-70
2024/01/13 12:43:24;;;;;;;0.10;0.10;;;6.30;99.90;;;;;;5023693;28;20046;-70
2024/01/13 12:45:51;;;;;;;0.10;0.10;;;6.40;99.90;;;;;;5032021;28;20473;-69
2024/01/13 12:48:20;;;;;;;0.00;0.00;;;6.40;99.90;;;;;;5029552;28;20051;-69
2024/01/13 12:50:46;;;;;;;0.00;0.00;;;6.30;99.90;;;;;;5028231;28;20132;-70
2024/01/13 12:53:12;;;;;;;0.10;0.10;;;6.40;99.90;;;;;;5037345;28;20091;-69
2024/01/13 12:55:38;;;;;;;0.00;0.00;;;6.40;99.90;;;;;;5024505;28;20046;-69